Time;durP1;ratioP1;P1;durP2;ratioP2;P2;SDS_P1;SDS_P2;PMS_P1;PMS_P2;Temp;Humidity;BMP_temperature;BMP_pressure;BME280_temperature;BME280_humidity;BME280_pressure;Samples;Min_cycle;Max_cycle;Signal;HPM_P1;HPM_P2
2023/03/06 00:01:39;;;;;;;23.85;17.08;;;;;;;;;;5031705;28;20415;-64
2023/03/06 00:04:06;;;;;;;27.60;17.55;;;;;;;;;;5045104;28;20026;-64
2023/03/06 00:06:32;;;;;;;24.48;17.63;;;;;;;;;;5040958;28;20471;-65
2023/03/06 00:08:57;;;;;;;32.15;18.38;;;;;;;;;;5038165;28;20056;-65
2023/03/06 00:11:22;;;;;;;23.85;17.17;;;;;;;;;;5051676;28;20414;-65
2023/03/06 00:13:47;;;;;;;28.88;18.73;;;;;;;;;;5051378;28;20028;-65
2023/03/06 00:16:13;;;;;;;29.05;17.50;;;;;;;;;;5051712;28;20023;-64
2023/03/06 00:18:38;;;;;;;27.08;18.67;;;;;;;;;;5049971;28;20071;-64
2023/03/06 00:21:06;;;;;;;25.58;18.17;;;;;;;;;;5052086;28;20360;-64
2023/03/06 00:23:32;;;;;;;25.83;17.98;;;;;;;;;;5050919;28;20041;-65
2023/03/06 00:25:57;;;;;;;30.85;20.17;;;;;;;;;;5043797;28;20430;-65
2023/03/06 00:28:22;;;;;;;27.75;19.05;;;;;;;;;;5035703;28;20036;-65
2023/03/06 00:30:47;;;;;;;26.95;20.02;;;;;;;;;;5033755;28;20077;-65
2023/03/06 00:33:13;;;;;;;25.58;19.88;;;;;;;;;;5035086;28;20029;-65
2023/03/06 00:35:39;;;;;;;29.23;21.42;;;;;;;;;;5033886;28;20033;-65
2023/03/06 00:38:04;;;;;;;25.85;19.48;;;;;;;;;;5034036;28;20468;-65
2023/03/06 00:40:29;;;;;;;29.33;22.10;;;;;;;;;;5032699;28;20029;-65
2023/03/06 00:42:54;;;;;;;32.72;22.10;;;;;;;;;;5046813;28;20463;-65
2023/03/06 00:45:20;;;;;;;36.90;22.90;;;;;;;;;;5033451;28;20071;-65
2023/03/06 00:47:45;;;;;;;34.25;22.70;;;;;;;;;;5035239;28;20383;-65
2023/03/06 00:50:10;;;;;;;32.38;23.15;;;;;;;;;;5044492;28;20036;-65
2023/03/06 00:52:35;;;;;;;33.50;22.83;;;;;;;;;;5036916;28;20380;-65
2023/03/06 00:55:01;;;;;;;33.17;23.83;;;;;;;;;;5045045;28;20037;-65
2023/03/06 00:57:26;;;;;;;29.25;24.23;;;;;;;;;;5036013;28;20428;-65
2023/03/06 00:59:51;;;;;;;35.10;21.90;;;;;;;;;;5048201;28;20064;-65
2023/03/06 01:02:17;;;;;;;34.40;24.05;;;;;;;;;;5048706;28;20025;-65
2023/03/06 01:04:42;;;;;;;36.40;24.40;;;;;;;;;;5054185;28;20028;-65
2023/03/06 01:07:08;;;;;;;38.65;25.15;;;;;;;;;;5054028;28;20017;-65
2023/03/06 01:09:33;;;;;;;36.35;25.90;;;;;;;;;;5053785;28;20077;-65
2023/03/06 01:11:58;;;;;;;36.10;26.02;;;;;;;;;;5042552;28;20025;-65
2023/03/06 01:14:24;;;;;;;39.58;27.40;;;;;;;;;;5035877;28;20017;-65
2023/03/06 01:16:49;;;;;;;41.90;27.13;;;;;;;;;;5035491;28;20369;-65
2023/03/06 01:19:14;;;;;;;41.35;26.02;;;;;;;;;;5035035;28;20112;-65
2023/03/06 01:21:40;;;;;;;38.20;25.67;;;;;;;;;;5047132;28;20032;-65
2023/03/06 01:24:05;;;;;;;43.83;29.70;;;;;;;;;;5036352;28;20033;-65
2023/03/06 01:26:30;;;;;;;43.60;29.08;;;;;;;;;;5035536;28;20033;-64
2023/03/06 01:28:58;;;;;;;41.90;29.13;;;;;;;;;;5047699;28;20029;-65
2023/03/06 01:31:24;;;;;;;47.97;29.15;;;;;;;;;;5035325;28;20025;-65
2023/03/06 01:33:49;;;;;;;55.10;32.53;;;;;;;;;;5054391;28;20071;-64
2023/03/06 01:36:14;;;;;;;41.97;29.58;;;;;;;;;;5054929;28;20029;-64
2023/03/06 01:38:40;;;;;;;42.17;30.27;;;;;;;;;;5054539;28;20068;-64
2023/03/06 01:41:05;;;;;;;43.08;32.63;;;;;;;;;;5045683;28;20531;-64
2023/03/06 01:43:32;;;;;;;51.78;33.55;;;;;;;;;;5027418;28;20061;-65
2023/03/06 01:46:16;;;;;;;46.28;33.75;;;;;;;;;;5010828;28;20079;-65
2023/03/06 01:48:43;;;;;;;54.10;32.92;;;;;;;;;;5021123;28;20104;-65
2023/03/06 01:51:09;;;;;;;51.00;35.25;;;;;;;;;;5037099;28;20060;-65
2023/03/06 01:53:35;;;;;;;51.72;36.08;;;;;;;;;;5035707;28;20485;-65
2023/03/06 01:56:00;;;;;;;50.22;35.65;;;;;;;;;;5035523;28;20025;-65
2023/03/06 01:58:25;;;;;;;49.47;36.08;;;;;;;;;;5044277;28;20033;-65
2023/03/06 02:00:50;;;;;;;53.25;35.80;;;;;;;;;;5053633;28;20029;-65
2023/03/06 02:03:21;;;;;;;54.90;36.67;;;;;;;;;;5042966;28;20594;-65
2023/03/06 02:05:46;;;;;;;51.20;34.97;;;;;;;;;;5026161;28;20017;-65
2023/03/06 02:08:13;;;;;;;57.63;37.22;;;;;;;;;;5022442;28;20040;-65
2023/03/06 02:10:41;;;;;;;54.97;37.05;;;;;;;;;;5037917;28;20021;-65
2023/03/06 02:13:06;;;;;;;63.17;40.72;;;;;;;;;;5045684;28;20025;-65
2023/03/06 02:15:31;;;;;;;56.35;38.45;;;;;;;;;;5047809;28;20074;-65
2023/03/06 02:17:58;;;;;;;59.83;38.88;;;;;;;;;;5050041;28;20115;-65
2023/03/06 02:20:24;;;;;;;63.90;39.22;;;;;;;;;;5039241;28;20026;-65
2023/03/06 02:22:49;;;;;;;58.05;39.42;;;;;;;;;;5034454;28;20040;-65
2023/03/06 02:25:22;;;;;;;61.95;38.22;;;;;;;;;;5035933;28;20026;-65
2023/03/06 02:27:48;;;;;;;59.10;38.17;;;;;;;;;;5035187;28;20068;-65
2023/03/06 02:30:14;;;;;;;55.72;38.80;;;;;;;;;;5035605;28;20150;-66
2023/03/06 02:32:40;;;;;;;50.92;37.85;;;;;;;;;;5049791;28;20029;-65
2023/03/06 02:35:06;;;;;;;68.40;39.88;;;;;;;;;;5053984;28;20025;-65
2023/03/06 02:37:31;;;;;;;66.63;40.95;;;;;;;;;;5046950;28;20475;-65
2023/03/06 02:39:58;;;;;;;57.85;39.63;;;;;;;;;;5042691;28;20096;-65
2023/03/06 02:42:25;;;;;;;64.25;39.40;;;;;;;;;;5051142;28;20017;-65
2023/03/06 02:44:51;;;;;;;57.15;38.58;;;;;;;;;;5039549;28;20037;-65
2023/03/06 02:47:16;;;;;;;65.65;40.15;;;;;;;;;;5034753;28;20026;-65
2023/03/06 02:49:42;;;;;;;59.60;38.88;;;;;;;;;;5045233;28;20028;-65
2023/03/06 02:52:08;;;;;;;59.78;37.40;;;;;;;;;;5038741;28;20414;-65
2023/03/06 02:54:33;;;;;;;60.92;38.00;;;;;;;;;;5006659;28;20063;-65
2023/03/06 02:56:58;;;;;;;55.75;39.25;;;;;;;;;;5006593;28;20065;-65
2023/03/06 02:59:23;;;;;;;51.83;38.25;;;;;;;;;;5017891;28;20029;-66
2023/03/06 03:01:49;;;;;;;60.40;38.65;;;;;;;;;;5007822;28;20073;-66
2023/03/06 03:04:14;;;;;;;55.97;38.63;;;;;;;;;;5011885;28;20471;-65
2023/03/06 03:06:39;;;;;;;58.53;39.80;;;;;;;;;;5012739;28;20029;-65
2023/03/06 03:09:06;;;;;;;57.55;37.75;;;;;;;;;;5017561;28;20574;-65
2023/03/06 03:11:31;;;;;;;63.05;39.80;;;;;;;;;;5021387;28;20037;-66
2023/03/06 03:13:56;;;;;;;61.05;37.05;;;;;;;;;;5016517;28;20036;-65
2023/03/06 03:16:22;;;;;;;56.55;38.60;;;;;;;;;;5023352;28;20811;-66
2023/03/06 03:18:49;;;;;;;51.17;37.60;;;;;;;;;;5012979;28;20028;-65
2023/03/06 03:21:14;;;;;;;60.42;38.15;;;;;;;;;;5008818;28;20039;-66
2023/03/06 03:23:39;;;;;;;61.30;39.08;;;;;;;;;;5021193;28;20024;-65
2023/03/06 03:26:15;;;;;;;59.83;38.65;;;;;;;;;;5021855;28;20028;-65
2023/03/06 03:28:40;;;;;;;59.17;38.38;;;;;;;;;;5023910;28;20029;-65
2023/03/06 03:31:07;;;;;;;58.55;38.83;;;;;;;;;;5012476;28;20025;-66
2023/03/06 03:33:33;;;;;;;60.78;39.22;;;;;;;;;;5019576;28;20025;-65
2023/03/06 03:35:58;;;;;;;60.63;38.83;;;;;;;;;;5006819;28;20141;-66
2023/03/06 03:38:24;;;;;;;57.85;38.05;;;;;;;;;;5016994;28;20014;-65
2023/03/06 03:40:49;;;;;;;55.08;37.25;;;;;;;;;;5020142;28;20181;-65
2023/03/06 03:43:14;;;;;;;53.35;39.65;;;;;;;;;;5025807;28;20940;-65
2023/03/06 03:45:40;;;;;;;60.83;39.13;;;;;;;;;;5024729;28;20043;-65
2023/03/06 03:48:05;;;;;;;59.28;39.47;;;;;;;;;;5014230;28;20880;-65
2023/03/06 03:50:31;;;;;;;51.47;37.08;;;;;;;;;;5018151;28;20843;-66
2023/03/06 03:52:56;;;;;;;60.80;38.20;;;;;;;;;;5017372;28;20033;-65
2023/03/06 03:55:22;;;;;;;58.30;38.20;;;;;;;;;;5011929;28;20440;-66
2023/03/06 03:57:47;;;;;;;60.47;39.13;;;;;;;;;;5020949;28;20078;-66
2023/03/06 04:00:15;;;;;;;56.65;38.67;;;;;;;;;;5022717;28;20064;-65
2023/03/06 04:02:41;;;;;;;58.88;37.95;;;;;;;;;;5015668;28;20029;-65
2023/03/06 04:05:06;;;;;;;56.03;38.22;;;;;;;;;;5014976;28;20810;-65
2023/03/06 04:07:31;;;;;;;63.47;38.42;;;;;;;;;;5041517;28;20510;-65
2023/03/06 04:09:57;;;;;;;60.40;39.63;;;;;;;;;;5044388;28;20108;-65
2023/03/06 04:12:22;;;;;;;58.17;39.00;;;;;;;;;;5043707;28;20028;-65
2023/03/06 04:14:47;;;;;;;54.97;39.28;;;;;;;;;;5047374;28;20026;-65
2023/03/06 04:17:12;;;;;;;56.00;38.65;;;;;;;;;;5039974;28;20032;-64
2023/03/06 04:19:38;;;;;;;60.72;39.53;;;;;;;;;;5039364;28;20029;-65
2023/03/06 04:22:03;;;;;;;58.97;39.05;;;;;;;;;;5039719;28;20033;-65
2023/03/06 04:24:28;;;;;;;60.03;42.20;;;;;;;;;;5040320;28;20021;-65
2023/03/06 04:26:53;;;;;;;59.20;40.13;;;;;;;;;;5047845;28;20033;-65
2023/03/06 04:29:19;;;;;;;68.28;42.53;;;;;;;;;;5040313;28;20445;-65
2023/03/06 04:31:44;;;;;;;64.95;39.83;;;;;;;;;;5040337;28;20061;-65
2023/03/06 04:34:09;;;;;;;61.20;41.83;;;;;;;;;;5044170;28;20467;-65
2023/03/06 04:36:35;;;;;;;60.92;40.05;;;;;;;;;;5045648;28;20033;-65
2023/03/06 04:39:01;;;;;;;64.75;42.67;;;;;;;;;;5043869;28;20080;-65
2023/03/06 04:41:26;;;;;;;70.85;42.88;;;;;;;;;;5043717;28;20439;-65
2023/03/06 04:43:51;;;;;;;64.28;41.92;;;;;;;;;;5043955;28;20098;-65
2023/03/06 04:46:17;;;;;;;71.43;42.90;;;;;;;;;;5043666;28;20035;-65
2023/03/06 04:48:42;;;;;;;68.40;43.63;;;;;;;;;;5044208;28;20033;-65
2023/03/06 04:51:09;;;;;;;70.35;45.20;;;;;;;;;;5044071;28;20082;-65
2023/03/06 04:53:34;;;;;;;65.57;44.72;;;;;;;;;;5045566;28;20079;-65
2023/03/06 04:55:59;;;;;;;68.53;44.33;;;;;;;;;;5037187;28;20029;-65
2023/03/06 04:58:25;;;;;;;70.60;44.67;;;;;;;;;;5031842;28;20099;-65
2023/03/06 05:00:50;;;;;;;63.70;44.72;;;;;;;;;;5019448;28;20029;-64
2023/03/06 05:03:15;;;;;;;66.35;44.67;;;;;;;;;;5025203;28;20025;-64
2023/03/06 05:05:41;;;;;;;70.43;43.67;;;;;;;;;;5019489;28;20888;-64
2023/03/06 05:08:07;;;;;;;79.90;46.72;;;;;;;;;;5023843;28;20021;-65
2023/03/06 05:10:32;;;;;;;68.70;45.88;;;;;;;;;;5026439;28;20604;-65
2023/03/06 05:12:57;;;;;;;69.80;44.63;;;;;;;;;;5033628;28;20036;-65
2023/03/06 05:15:23;;;;;;;72.80;43.70;;;;;;;;;;5039697;28;20461;-64
2023/03/06 05:17:48;;;;;;;64.68;44.40;;;;;;;;;;5043674;28;20025;-64
2023/03/06 05:20:14;;;;;;;73.30;44.08;;;;;;;;;;5025894;28;20033;-64
2023/03/06 05:22:39;;;;;;;75.63;46.60;;;;;;;;;;5018921;28;20234;-65
2023/03/06 05:25:05;;;;;;;65.07;44.75;;;;;;;;;;5026434;28;20083;-65
2023/03/06 05:27:30;;;;;;;70.38;44.55;;;;;;;;;;5023360;28;20399;-65
2023/03/06 05:29:56;;;;;;;72.75;46.65;;;;;;;;;;5020384;28;20068;-65
2023/03/06 05:32:21;;;;;;;70.13;46.55;;;;;;;;;;5019712;28;20028;-65
2023/03/06 05:34:47;;;;;;;65.75;46.00;;;;;;;;;;5022287;28;20585;-65
2023/03/06 05:37:12;;;;;;;81.82;47.35;;;;;;;;;;5016865;28;20025;-65
2023/03/06 05:39:37;;;;;;;72.47;47.60;;;;;;;;;;5020604;28;20033;-65
2023/03/06 05:42:03;;;;;;;74.57;47.85;;;;;;;;;;5029236;28;20071;-65
2023/03/06 05:44:32;;;;;;;74.75;46.90;;;;;;;;;;5052872;28;20078;-65
2023/03/06 05:46:57;;;;;;;74.85;46.35;;;;;;;;;;5054545;28;20037;-65
2023/03/06 05:49:23;;;;;;;73.90;46.72;;;;;;;;;;5053366;28;20070;-65
2023/03/06 05:51:48;;;;;;;76.07;47.45;;;;;;;;;;5053739;28;20082;-65
2023/03/06 05:54:13;;;;;;;71.47;48.80;;;;;;;;;;5053503;28;20029;-64
2023/03/06 05:56:38;;;;;;;79.60;49.45;;;;;;;;;;5052597;28;20480;-64
2023/03/06 05:59:04;;;;;;;72.68;46.83;;;;;;;;;;5052569;28;20033;-65
2023/03/06 06:01:29;;;;;;;78.15;49.20;;;;;;;;;;5046170;28;20532;-65
2023/03/06 06:03:54;;;;;;;84.53;50.13;;;;;;;;;;5051624;28;20483;-64
2023/03/06 06:06:20;;;;;;;78.85;49.03;;;;;;;;;;5038164;28;20029;-64
2023/03/06 06:08:45;;;;;;;82.63;50.13;;;;;;;;;;5051289;28;20032;-65
2023/03/06 06:11:11;;;;;;;76.45;48.75;;;;;;;;;;5053515;28;20056;-65
2023/03/06 06:13:37;;;;;;;79.82;48.28;;;;;;;;;;5054277;28;20029;-65
2023/03/06 06:16:06;;;;;;;77.82;49.38;;;;;;;;;;5053760;28;20433;-65
2023/03/06 06:18:31;;;;;;;75.55;48.08;;;;;;;;;;5053259;28;20029;-65
2023/03/06 06:20:56;;;;;;;78.78;48.90;;;;;;;;;;5053873;28;20037;-65
2023/03/06 06:23:22;;;;;;;74.43;48.58;;;;;;;;;;5030710;28;20056;-65
2023/03/06 06:25:47;;;;;;;72.20;49.08;;;;;;;;;;5010013;28;20451;-65
2023/03/06 06:28:12;;;;;;;81.45;50.60;;;;;;;;;;5015270;28;20065;-65
2023/03/06 06:30:37;;;;;;;79.25;48.80;;;;;;;;;;5004205;28;20025;-65
2023/03/06 06:33:03;;;;;;;85.13;49.75;;;;;;;;;;5013114;28;20026;-65
2023/03/06 06:35:28;;;;;;;77.15;48.92;;;;;;;;;;5006311;28;20490;-65
2023/03/06 06:37:53;;;;;;;89.15;51.60;;;;;;;;;;5020882;28;20024;-65
2023/03/06 06:40:20;;;;;;;91.90;51.28;;;;;;;;;;5017657;28;20037;-65
2023/03/06 06:42:46;;;;;;;80.95;50.72;;;;;;;;;;5023759;28;20147;-65
2023/03/06 06:45:11;;;;;;;81.32;51.65;;;;;;;;;;5032401;28;20031;-64
2023/03/06 06:47:39;;;;;;;80.10;50.55;;;;;;;;;;5048442;28;20095;-65
2023/03/06 06:50:06;;;;;;;86.35;49.70;;;;;;;;;;5034322;28;20026;-65
2023/03/06 06:52:31;;;;;;;91.43;52.58;;;;;;;;;;5034249;28;20638;-65
2023/03/06 06:54:56;;;;;;;81.38;49.95;;;;;;;;;;5045838;28;20033;-65
2023/03/06 06:57:21;;;;;;;95.78;51.95;;;;;;;;;;5034322;28;20444;-65
2023/03/06 06:59:47;;;;;;;91.07;52.47;;;;;;;;;;5034987;28;20087;-65
2023/03/06 07:02:13;;;;;;;88.85;50.90;;;;;;;;;;5045620;28;20029;-65
2023/03/06 07:04:38;;;;;;;87.20;52.38;;;;;;;;;;5039490;28;20383;-65
2023/03/06 07:07:04;;;;;;;91.13;50.78;;;;;;;;;;5045219;28;20066;-65
2023/03/06 07:09:30;;;;;;;88.28;51.60;;;;;;;;;;5045821;28;20520;-65
2023/03/06 07:11:55;;;;;;;88.85;51.95;;;;;;;;;;5040715;28;20021;-65
2023/03/06 07:14:20;;;;;;;81.55;51.08;;;;;;;;;;5033387;28;20021;-65
2023/03/06 07:16:45;;;;;;;101.63;54.05;;;;;;;;;;5032993;28;20021;-65
2023/03/06 07:19:11;;;;;;;89.53;51.10;;;;;;;;;;5038491;28;20360;-65
2023/03/06 07:21:36;;;;;;;76.50;51.00;;;;;;;;;;5052606;28;20503;-66
2023/03/06 07:24:01;;;;;;;87.53;51.63;;;;;;;;;;5052189;28;20066;-66
2023/03/06 07:26:27;;;;;;;81.60;49.88;;;;;;;;;;5052372;28;20029;-66
2023/03/06 07:28:52;;;;;;;84.63;50.60;;;;;;;;;;5051649;28;20097;-65
2023/03/06 07:31:23;;;;;;;73.18;46.20;;;;;;;;;;5046745;28;20025;-65
2023/03/06 07:33:48;;;;;;;69.30;47.25;;;;;;;;;;5052148;28;20029;-65
2023/03/06 07:36:14;;;;;;;68.30;45.00;;;;;;;;;;5050887;28;20028;-65
2023/03/06 07:38:39;;;;;;;63.92;44.83;;;;;;;;;;5044325;28;20125;-65
2023/03/06 07:41:07;;;;;;;65.32;41.33;;;;;;;;;;5049904;28;20024;-64
2023/03/06 07:43:32;;;;;;;68.32;40.50;;;;;;;;;;5051848;28;20024;-65
2023/03/06 07:45:58;;;;;;;62.65;42.28;;;;;;;;;;5049931;28;20029;-65
2023/03/06 07:48:24;;;;;;;60.42;41.15;;;;;;;;;;5046485;28;20025;-65
2023/03/06 07:50:56;;;;;;;62.75;40.35;;;;;;;;;;5045780;28;20115;-65
2023/03/06 07:53:23;;;;;;;58.08;41.05;;;;;;;;;;5047341;28;20042;-65
2023/03/06 07:55:48;;;;;;;60.92;38.80;;;;;;;;;;5049456;28;20112;-65
2023/03/06 07:58:13;;;;;;;63.97;39.20;;;;;;;;;;5048452;28;20120;-65
2023/03/06 08:00:39;;;;;;;53.40;37.83;;;;;;;;;;5048974;28;20037;-66
2023/03/06 08:03:04;;;;;;;49.97;36.88;;;;;;;;;;5039132;28;20025;-62
2023/03/06 08:05:29;;;;;;;56.17;39.00;;;;;;;;;;5050188;28;20021;-62
2023/03/06 08:07:55;;;;;;;56.17;38.05;;;;;;;;;;5049937;28;20052;-63
2023/03/06 08:10:20;;;;;;;58.15;37.30;;;;;;;;;;5054181;28;20521;-62
2023/03/06 08:12:45;;;;;;;50.92;36.30;;;;;;;;;;5052229;28;20059;-63
2023/03/06 08:15:11;;;;;;;59.55;37.28;;;;;;;;;;5053095;28;20059;-63
2023/03/06 08:17:36;;;;;;;53.40;34.17;;;;;;;;;;5052133;28;20017;-63
2023/03/06 08:20:01;;;;;;;53.85;36.10;;;;;;;;;;5052045;28;20029;-64
2023/03/06 08:22:26;;;;;;;51.80;35.88;;;;;;;;;;5044888;28;20071;-66
2023/03/06 08:24:55;;;;;;;53.78;37.40;;;;;;;;;;5049551;28;20029;-67
2023/03/06 08:27:20;;;;;;;51.08;34.17;;;;;;;;;;5050825;28;20059;-67
2023/03/06 08:29:46;;;;;;;54.00;35.97;;;;;;;;;;5047240;28;20439;-66
2023/03/06 08:32:11;;;;;;;47.47;32.60;;;;;;;;;;5043619;28;20021;-65
2023/03/06 08:34:38;;;;;;;50.78;34.70;;;;;;;;;;5039209;28;20033;-65
2023/03/06 08:37:04;;;;;;;52.47;34.35;;;;;;;;;;5053537;28;20037;-65
2023/03/06 08:39:29;;;;;;;50.22;33.63;;;;;;;;;;5047336;28;20036;-66
2023/03/06 08:41:54;;;;;;;50.70;35.65;;;;;;;;;;5051551;28;20598;-66
2023/03/06 08:44:19;;;;;;;54.08;34.78;;;;;;;;;;5043670;28;20028;-66
2023/03/06 08:46:45;;;;;;;51.70;34.25;;;;;;;;;;5050938;28;20071;-66
2023/03/06 08:49:11;;;;;;;46.25;32.88;;;;;;;;;;5050121;28;20385;-65
2023/03/06 08:51:36;;;;;;;47.42;33.55;;;;;;;;;;5044399;28;20029;-65
2023/03/06 08:54:02;;;;;;;52.80;34.28;;;;;;;;;;5049906;28;20481;-65
2023/03/06 08:56:28;;;;;;;52.80;33.25;;;;;;;;;;5057157;28;20025;-65
2023/03/06 08:58:54;;;;;;;53.33;31.48;;;;;;;;;;5042339;28;20507;-65
2023/03/06 09:01:27;;;;;;;51.08;32.95;;;;;;;;;;5044634;28;20052;-65
2023/03/06 09:03:53;;;;;;;49.78;31.85;;;;;;;;;;5043922;28;20025;-65
2023/03/06 09:06:18;;;;;;;46.17;30.40;;;;;;;;;;5052515;28;20116;-65
2023/03/06 09:08:43;;;;;;;53.38;32.90;;;;;;;;;;5039637;28;20155;-65
2023/03/06 09:11:12;;;;;;;46.05;31.48;;;;;;;;;;5054580;28;20028;-65
2023/03/06 09:13:38;;;;;;;44.42;31.65;;;;;;;;;;5053926;28;20767;-65
2023/03/06 09:16:03;;;;;;;45.95;29.92;;;;;;;;;;5054273;28;20080;-65
2023/03/06 09:18:28;;;;;;;39.40;28.00;;;;;;;;;;5051521;28;20068;-65
2023/03/06 09:20:54;;;;;;;42.38;29.05;;;;;;;;;;5046327;28;20029;-65
2023/03/06 09:23:19;;;;;;;44.17;28.27;;;;;;;;;;5043068;28;20044;-65
2023/03/06 09:25:50;;;;;;;44.42;28.50;;;;;;;;;;5039971;28;20430;-65
2023/03/06 09:28:16;;;;;;;37.95;28.90;;;;;;;;;;5048948;28;20021;-65
2023/03/06 09:30:41;;;;;;;43.25;27.08;;;;;;;;;;5040551;28;20464;-65
2023/03/06 09:33:07;;;;;;;38.33;25.73;;;;;;;;;;5041160;28;20105;-65
2023/03/06 09:35:32;;;;;;;32.53;23.52;;;;;;;;;;5048146;28;20033;-65
2023/03/06 09:37:57;;;;;;;45.85;24.40;;;;;;;;;;5046261;28;20035;-65
2023/03/06 09:40:29;;;;;;;34.95;23.92;;;;;;;;;;5042621;28;20029;-64
2023/03/06 09:42:54;;;;;;;37.20;23.13;;;;;;;;;;5052754;28;20033;-64
2023/03/06 09:45:20;;;;;;;40.10;23.38;;;;;;;;;;5051707;28;20376;-64
2023/03/06 09:47:53;;;;;;;32.78;22.13;;;;;;;;;;5045370;28;20223;-64
2023/03/06 09:50:21;;;;;;;33.22;22.52;;;;;;;;;;5036221;28;20388;-64
2023/03/06 09:52:56;;;;;;;27.10;19.98;;;;;;;;;;5048585;28;20549;-67
2023/03/06 09:55:23;;;;;;;28.63;20.20;;;;;;;;;;5044652;28;20049;-64
2023/03/06 09:58:01;;;;;;;31.35;22.60;;;;;;;;;;5039779;28;20032;-64
2023/03/06 10:00:33;;;;;;;32.83;20.98;;;;;;;;;;5045561;28;20090;-64
2023/03/06 10:02:58;;;;;;;36.67;21.80;;;;;;;;;;5046912;28;20093;-64
2023/03/06 10:05:26;;;;;;;29.75;22.00;;;;;;;;;;5050376;28;20032;-64
2023/03/06 10:07:58;;;;;;;31.75;23.00;;;;;;;;;;5052319;28;20032;-65
2023/03/06 10:10:27;;;;;;;34.63;23.05;;;;;;;;;;5053165;28;20547;-64
2023/03/06 10:13:02;;;;;;;37.05;24.08;;;;;;;;;;5048968;28;20045;-65
2023/03/06 10:15:40;;;;;;;33.20;23.52;;;;;;;;;;5052541;28;20475;-64
2023/03/06 10:18:05;;;;;;;35.97;23.38;;;;;;;;;;5051314;28;20070;-64
2023/03/06 10:20:36;;;;;;;33.67;23.33;;;;;;;;;;5048016;28;20029;-65
2023/03/06 10:23:23;;;;;;;36.92;23.15;;;;;;;;;;5045578;28;20033;-65
2023/03/06 10:25:48;;;;;;;31.88;23.45;;;;;;;;;;5046771;28;20021;-65
2023/03/06 10:28:20;;;;;;;34.58;23.45;;;;;;;;;;5045572;28;20025;-65
2023/03/06 10:30:50;;;;;;;32.28;24.30;;;;;;;;;;5037833;28;20018;-65
2023/03/06 10:33:29;;;;;;;42.92;25.73;;;;;;;;;;5048737;28;20033;-65
2023/03/06 10:35:55;;;;;;;31.55;24.50;;;;;;;;;;5046992;28;20025;-65
2023/03/06 10:38:24;;;;;;;31.88;25.30;;;;;;;;;;5049138;28;20027;-65
2023/03/06 10:40:53;;;;;;;43.58;27.58;;;;;;;;;;5042999;28;20033;-65
2023/03/06 10:43:18;;;;;;;37.60;26.58;;;;;;;;;;5049209;28;20032;-65
2023/03/06 10:45:45;;;;;;;43.13;29.65;;;;;;;;;;5046073;28;20017;-65
2023/03/06 10:48:10;;;;;;;41.33;27.40;;;;;;;;;;5041736;28;20040;-65
2023/03/06 10:50:36;;;;;;;43.72;30.08;;;;;;;;;;5051264;28;20484;-65
2023/03/06 10:53:05;;;;;;;49.17;31.27;;;;;;;;;;5048958;28;20391;-65
2023/03/06 10:55:34;;;;;;;40.00;29.35;;;;;;;;;;5046408;28;20071;-65
2023/03/06 10:58:38;;;;;;;48.53;28.67;;;;;;;;;;5047873;28;20064;-65
2023/03/06 11:01:03;;;;;;;42.10;28.67;;;;;;;;;;5022346;28;20042;-65
2023/03/06 11:03:29;;;;;;;47.72;31.40;;;;;;;;;;5029613;28;20035;-65
2023/03/06 11:06:00;;;;;;;45.58;30.10;;;;;;;;;;5026601;28;20045;-65
2023/03/06 11:08:25;;;;;;;47.42;28.30;;;;;;;;;;5049645;28;20021;-65
2023/03/06 11:11:05;;;;;;;52.15;30.98;;;;;;;;;;5051565;28;20389;-65
2023/03/06 11:13:32;;;;;;;44.55;31.30;;;;;;;;;;5051321;28;20017;-65
2023/03/06 11:16:02;;;;;;;42.15;31.27;;;;;;;;;;5051059;28;20036;-65
2023/03/06 11:18:33;;;;;;;44.35;30.20;;;;;;;;;;5049198;28;20025;-65
2023/03/06 11:20:59;;;;;;;54.08;32.33;;;;;;;;;;5051006;28;20036;-65
2023/03/06 11:23:44;;;;;;;39.15;29.05;;;;;;;;;;5048368;28;20029;-65
2023/03/06 11:26:12;;;;;;;40.60;28.60;;;;;;;;;;5047029;28;20021;-65
2023/03/06 11:28:43;;;;;;;43.45;31.48;;;;;;;;;;5047530;28;20070;-65
2023/03/06 11:31:15;;;;;;;45.60;30.23;;;;;;;;;;5049320;28;20033;-65
2023/03/06 11:33:50;;;;;;;43.25;30.40;;;;;;;;;;5047845;28;20521;-65
2023/03/06 11:36:34;;;;;;;42.28;31.02;;;;;;;;;;5045928;28;20032;-65
2023/03/06 11:39:01;;;;;;;45.65;31.13;;;;;;;;;;5051739;28;20021;-65
2023/03/06 11:41:46;;;;;;;41.55;28.98;;;;;;;;;;5048288;28;20028;-65
2023/03/06 11:44:15;;;;;;;43.10;30.50;;;;;;;;;;5039102;28;20125;-65
2023/03/06 11:46:45;;;;;;;40.30;26.67;;;;;;;;;;5050821;28;20098;-65
2023/03/06 11:49:46;;;;;;;42.20;27.13;;;;;;;;;;5048982;28;20480;-65
2023/03/06 11:52:18;;;;;;;37.22;24.90;;;;;;;;;;5049287;28;20438;-66
2023/03/06 11:54:45;;;;;;;41.72;25.23;;;;;;;;;;5050733;28;20092;-65
2023/03/06 11:57:31;;;;;;;40.92;26.10;;;;;;;;;;5047947;28;20092;-65
2023/03/06 12:00:14;;;;;;;35.13;25.25;;;;;;;;;;5045813;28;20053;-65
2023/03/06 12:02:48;;;;;;;42.10;27.65;;;;;;;;;;5047267;28;20094;-65
2023/03/06 12:05:32;;;;;;;42.72;26.90;;;;;;;;;;5047754;28;20047;-65
2023/03/06 12:08:18;;;;;;;40.83;26.20;;;;;;;;;;5047768;28;20025;-65
2023/03/06 12:11:09;;;;;;;44.88;27.02;;;;;;;;;;5048213;28;20064;-65
2023/03/06 12:13:53;;;;;;;43.85;29.20;;;;;;;;;;5051196;28;20034;-65
2023/03/06 12:16:24;;;;;;;47.10;28.98;;;;;;;;;;5045346;28;20414;-65
2023/03/06 12:18:52;;;;;;;43.60;29.35;;;;;;;;;;5049713;28;20475;-66
2023/03/06 12:21:29;;;;;;;41.25;28.23;;;;;;;;;;5046866;28;20027;-66
2023/03/06 12:24:33;;;;;;;42.83;29.48;;;;;;;;;;5042538;28;20022;-65
2023/03/06 12:27:22;;;;;;;47.35;31.13;;;;;;;;;;5014983;28;20017;-65
2023/03/06 12:30:05;;;;;;;44.95;32.20;;;;;;;;;;5012336;28;20116;-65
2023/03/06 12:32:36;;;;;;;38.60;28.23;;;;;;;;;;5039103;28;20041;-65
2023/03/06 12:35:11;;;;;;;47.03;30.23;;;;;;;;;;5038114;28;20037;-66
2023/03/06 12:37:39;;;;;;;;;;;;;;;;;;5042051;28;20029;-66
2023/03/06 12:40:27;;;;;;;44.95;27.75;;;;;;;;;;5047460;28;19932;-65
2023/03/06 12:42:55;;;;;;;41.38;29.20;;;;;;;;;;5050120;28;20344;-65
2023/03/06 12:45:26;;;;;;;43.50;29.05;;;;;;;;;;5031586;28;20376;-65
2023/03/06 12:47:54;;;;;;;43.63;31.20;;;;;;;;;;5043909;28;20491;-65
2023/03/06 12:50:22;;;;;;;46.20;30.30;;;;;;;;;;5040486;28;20100;-65
2023/03/06 12:52:47;;;;;;;40.72;29.25;;;;;;;;;;5047156;28;20388;-65
2023/03/06 12:55:14;;;;;;;44.78;30.48;;;;;;;;;;5041792;28;20021;-66
2023/03/06 12:57:40;;;;;;;44.80;31.13;;;;;;;;;;5052473;28;20048;-66
2023/03/06 13:00:07;;;;;;;45.75;31.60;;;;;;;;;;5049894;28;20033;-66
2023/03/06 13:02:32;;;;;;;44.67;30.80;;;;;;;;;;5049951;28;20021;-66
2023/03/06 13:05:12;;;;;;;40.25;31.50;;;;;;;;;;5050616;28;20032;-65
2023/03/06 13:07:47;;;;;;;48.72;32.55;;;;;;;;;;5050118;28;20056;-66
2023/03/06 13:10:25;;;;;;;55.65;31.27;;;;;;;;;;5050472;28;20057;-66
2023/03/06 13:12:59;;;;;;;43.28;30.02;;;;;;;;;;5051919;28;20395;-66
2023/03/06 13:15:25;;;;;;;42.22;29.92;;;;;;;;;;5044192;28;20464;-65
2023/03/06 13:17:50;;;;;;;53.28;31.77;;;;;;;;;;5043241;28;20036;-65
2023/03/06 13:20:23;;;;;;;48.05;30.50;;;;;;;;;;5051652;28;20051;-65
2023/03/06 13:22:49;;;;;;;46.08;29.15;;;;;;;;;;5049887;28;20217;-66
2023/03/06 13:25:17;;;;;;;42.83;30.77;;;;;;;;;;5042334;28;20021;-66
2023/03/06 13:27:54;;;;;;;43.55;31.55;;;;;;;;;;5053420;28;20025;-66
2023/03/06 13:30:34;;;;;;;51.20;31.50;;;;;;;;;;5050820;28;20101;-66
2023/03/06 13:33:00;;;;;;;46.75;31.17;;;;;;;;;;5046775;28;20037;-66
2023/03/06 13:35:31;;;;;;;48.38;32.75;;;;;;;;;;5037992;28;20037;-65
2023/03/06 13:37:57;;;;;;;48.40;32.35;;;;;;;;;;5045022;28;20106;-65
2023/03/06 13:40:30;;;;;;;50.30;33.20;;;;;;;;;;5047937;28;20065;-66
2023/03/06 13:42:55;;;;;;;50.85;33.60;;;;;;;;;;5054023;28;20384;-66
2023/03/06 13:45:25;;;;;;;44.72;33.15;;;;;;;;;;5053129;28;20035;-65
2023/03/06 13:47:52;;;;;;;42.15;30.50;;;;;;;;;;5046628;28;20021;-65
2023/03/06 13:50:24;;;;;;;47.50;34.38;;;;;;;;;;5038453;28;20033;-65
2023/03/06 13:52:56;;;;;;;48.03;33.45;;;;;;;;;;5037024;28;20049;-65
2023/03/06 13:55:41;;;;;;;44.90;31.88;;;;;;;;;;5044652;28;20029;-65
2023/03/06 13:58:06;;;;;;;45.13;31.90;;;;;;;;;;5035107;28;20029;-66
2023/03/06 14:00:45;;;;;;;50.47;34.90;;;;;;;;;;5051993;28;20463;-66
2023/03/06 14:03:29;;;;;;;50.30;35.35;;;;;;;;;;5053444;28;20108;-67
2023/03/06 14:05:55;;;;;;;54.30;34.42;;;;;;;;;;5052865;28;20040;-66
2023/03/06 14:08:27;;;;;;;53.38;33.95;;;;;;;;;;5053363;28;20025;-66
2023/03/06 14:10:58;;;;;;;48.97;34.90;;;;;;;;;;5049787;28;20017;-66
2023/03/06 14:13:26;;;;;;;53.75;34.88;;;;;;;;;;5034525;28;20033;-66
2023/03/06 14:15:53;;;;;;;52.15;33.75;;;;;;;;;;5034041;28;20049;-66
2023/03/06 14:18:18;;;;;;;44.63;31.40;;;;;;;;;;5045342;28;20024;-66
2023/03/06 14:20:45;;;;;;;45.75;31.10;;;;;;;;;;5048257;28;20423;-66